createdAt,value
2022-07-29T00:02:15.280Z,100.00
2022-07-29T00:04:41.969Z,100.00
2022-07-29T00:07:08.672Z,100.00
2022-07-29T00:09:50.445Z,100.00
2022-07-29T00:12:26.580Z,100.00
2022-07-29T00:14:57.734Z,100.00
2022-07-29T00:17:25.183Z,100.00
2022-07-29T00:19:52.100Z,100.00
2022-07-29T00:22:19.098Z,100.00
2022-07-29T00:24:45.713Z,100.00
2022-07-29T00:27:12.326Z,100.00
2022-07-29T00:29:38.877Z,100.00
2022-07-29T00:32:05.796Z,100.00
2022-07-29T00:34:51.397Z,100.00
2022-07-29T00:37:18.056Z,100.00
2022-07-29T00:39:44.760Z,100.00
2022-07-29T00:42:11.317Z,100.00
2022-07-29T00:44:42.318Z,100.00
2022-07-29T00:47:10.490Z,100.00
2022-07-29T00:49:37.627Z,100.00
2022-07-29T00:52:08.866Z,100.00
2022-07-29T00:54:37.412Z,100.00
2022-07-29T00:57:12.276Z,100.00
2022-07-29T00:59:38.835Z,100.00
2022-07-29T01:02:05.467Z,100.00
2022-07-29T01:04:33.056Z,100.00
2022-07-29T01:07:02.614Z,100.00
2022-07-29T01:09:42.187Z,100.00
2022-07-29T01:12:17.868Z,100.00
2022-07-29T01:14:45.529Z,100.00
2022-07-29T01:17:24.149Z,100.00
2022-07-29T01:20:31.572Z,100.00
2022-07-29T01:23:07.903Z,100.00
2022-07-29T01:25:56.077Z,100.00
2022-07-29T01:28:54.397Z,100.00
2022-07-29T01:31:27.339Z,100.00
2022-07-29T01:34:02.616Z,100.00
2022-07-29T01:36:35.981Z,100.00
2022-07-29T01:39:10.461Z,100.00
2022-07-29T01:41:45.087Z,100.00
2022-07-29T01:44:18.226Z,100.00
2022-07-29T01:46:51.880Z,100.00
2022-07-29T01:49:23.528Z,100.00
2022-07-29T01:51:58.411Z,100.00
2022-07-29T01:54:32.157Z,100.00
2022-07-29T01:57:00.951Z,100.00
2022-07-29T01:59:28.646Z,100.00
2022-07-29T02:01:58.417Z,100.00
2022-07-29T02:04:29.791Z,100.00
2022-07-29T02:07:02.758Z,100.00
2022-07-29T02:09:32.464Z,100.00
2022-07-29T02:12:02.189Z,100.00
2022-07-29T02:14:32.679Z,100.00
2022-07-29T02:17:01.621Z,100.00
2022-07-29T02:19:30.391Z,100.00
2022-07-29T02:21:58.590Z,100.00
2022-07-29T02:24:26.913Z,100.00
2022-07-29T02:26:56.150Z,100.00
2022-07-29T02:29:24.639Z,100.00
2022-07-29T02:31:53.708Z,100.00
2022-07-29T02:34:21.876Z,100.00
2022-07-29T02:36:50.628Z,100.00
2022-07-29T02:39:19.322Z,100.00
2022-07-29T02:41:49.069Z,100.00
2022-07-29T02:44:21.731Z,100.00
2022-07-29T02:46:56.023Z,100.00
2022-07-29T02:49:22.683Z,100.00
2022-07-29T02:51:59.301Z,100.00
2022-07-29T02:54:28.814Z,100.00
2022-07-29T02:56:58.987Z,100.00
2022-07-29T02:59:28.752Z,100.00
2022-07-29T03:01:56.755Z,100.00
2022-07-29T03:04:27.033Z,100.00
2022-07-29T03:06:54.559Z,100.00
2022-07-29T03:09:22.926Z,100.00
2022-07-29T03:11:50.954Z,100.00
2022-07-29T03:14:21.038Z,100.00
2022-07-29T03:16:49.445Z,100.00
2022-07-29T03:19:16.501Z,100.00
2022-07-29T03:21:43.077Z,100.00
2022-07-29T03:24:10.690Z,100.00
2022-07-29T03:26:37.944Z,100.00
2022-07-29T03:29:04.558Z,100.00
2022-07-29T03:31:32.128Z,100.00
2022-07-29T03:34:00.283Z,100.00
2022-07-29T03:36:26.898Z,100.00
2022-07-29T03:38:53.857Z,100.00
2022-07-29T03:41:23.497Z,100.00
2022-07-29T03:43:52.537Z,100.00
2022-07-29T03:46:23.590Z,100.00
2022-07-29T03:48:53.697Z,100.00
2022-07-29T03:51:33.348Z,100.00
2022-07-29T03:54:09.850Z,100.00
2022-07-29T03:56:41.161Z,100.00
2022-07-29T03:59:08.621Z,100.00
2022-07-29T04:01:36.378Z,100.00
2022-07-29T04:04:03.785Z,100.00
2022-07-29T04:06:30.441Z,100.00
2022-07-29T04:08:57.033Z,100.00
2022-07-29T04:11:23.844Z,100.00
2022-07-29T04:13:50.431Z,100.00
2022-07-29T04:16:17.050Z,100.00
2022-07-29T04:18:43.709Z,100.00
2022-07-29T04:21:10.219Z,100.00
2022-07-29T04:23:36.792Z,100.00
2022-07-29T04:26:20.932Z,100.00
2022-07-29T04:28:47.581Z,100.00
2022-07-29T04:31:14.391Z,100.00
2022-07-29T04:33:41.001Z,100.00
2022-07-29T04:36:07.581Z,100.00
2022-07-29T04:38:54.062Z,100.00
2022-07-29T04:41:20.850Z,100.00
2022-07-29T04:43:47.968Z,100.00
2022-07-29T04:46:15.070Z,100.00
2022-07-29T04:48:41.766Z,100.00
2022-07-29T04:51:08.422Z,100.00
2022-07-29T04:53:34.964Z,100.00
2022-07-29T04:56:01.540Z,100.00
2022-07-29T04:58:28.085Z,100.00
2022-07-29T05:00:54.736Z,100.00
2022-07-29T05:03:21.495Z,100.00
2022-07-29T05:05:48.080Z,100.00
2022-07-29T05:08:14.744Z,100.00
2022-07-29T05:10:41.320Z,100.00
2022-07-29T05:13:08.631Z,100.00
2022-07-29T05:15:36.859Z,100.00
2022-07-29T05:18:04.607Z,100.00
2022-07-29T05:20:31.851Z,100.00
2022-07-29T05:22:59.689Z,100.00
2022-07-29T05:25:43.032Z,100.00
2022-07-29T05:28:11.771Z,100.00
2022-07-29T05:30:38.413Z,100.00
2022-07-29T05:33:05.083Z,100.00
2022-07-29T05:35:31.695Z,100.00
2022-07-29T05:37:58.271Z,100.00
2022-07-29T05:40:24.968Z,100.00
2022-07-29T05:42:51.540Z,100.00
2022-07-29T05:45:18.187Z,100.00
2022-07-29T05:47:44.820Z,100.00
2022-07-29T05:50:11.595Z,100.00
2022-07-29T05:52:38.195Z,100.00
2022-07-29T05:55:06.534Z,100.00
2022-07-29T05:57:33.229Z,100.00
2022-07-29T05:59:59.893Z,100.00
2022-07-29T06:02:26.789Z,100.00
2022-07-29T06:04:53.601Z,100.00
2022-07-29T06:07:20.394Z,100.00
2022-07-29T06:09:46.962Z,100.00
2022-07-29T06:12:13.606Z,100.00
2022-07-29T06:14:40.175Z,100.00
2022-07-29T06:17:06.847Z,100.00
2022-07-29T06:19:37.247Z,100.00
2022-07-29T06:22:04.474Z,100.00
2022-07-29T06:24:31.739Z,100.00
2022-07-29T06:26:58.450Z,100.00
2022-07-29T06:29:25.341Z,100.00
2022-07-29T06:31:51.966Z,100.00
2022-07-29T06:34:18.959Z,100.00
2022-07-29T06:36:46.368Z,100.00
2022-07-29T06:39:13.410Z,100.00
2022-07-29T06:41:40.078Z,100.00
2022-07-29T06:44:06.672Z,100.00
2022-07-29T06:46:33.761Z,100.00
2022-07-29T06:49:02.546Z,100.00
2022-07-29T06:51:30.293Z,100.00
2022-07-29T06:54:02.350Z,100.00
2022-07-29T06:56:45.185Z,100.00
2022-07-29T06:59:13.373Z,100.00
2022-07-29T07:01:42.810Z,100.00
2022-07-29T07:04:11.794Z,100.00
2022-07-29T07:06:38.826Z,100.00
2022-07-29T07:09:05.687Z,100.00
2022-07-29T07:11:32.232Z,100.00
2022-07-29T07:14:03.046Z,100.00
2022-07-29T07:16:30.362Z,100.00
2022-07-29T07:18:56.979Z,100.00
2022-07-29T07:21:23.626Z,100.00
2022-07-29T07:23:50.172Z,100.00
2022-07-29T07:26:16.735Z,100.00
2022-07-29T07:28:43.347Z,100.00
2022-07-29T07:31:10.559Z,100.00
2022-07-29T07:33:37.197Z,100.00
2022-07-29T07:36:03.953Z,100.00
2022-07-29T07:38:30.755Z,100.00
2022-07-29T07:40:57.402Z,100.00
2022-07-29T07:43:24.006Z,98.17
2022-07-29T07:45:50.798Z,100.00
2022-07-29T07:48:17.534Z,100.00
2022-07-29T07:50:44.858Z,100.00
2022-07-29T07:53:11.743Z,100.00
2022-07-29T07:56:09.298Z,100.00
2022-07-29T07:58:31.677Z,98.85
2022-07-29T08:00:58.327Z,100.00
2022-07-29T08:03:24.949Z,100.00
2022-07-29T08:05:55.322Z,96.06
2022-07-29T08:08:22.102Z,100.00
2022-07-29T08:10:56.338Z,100.00
2022-07-29T08:13:26.145Z,93.93
2022-07-29T08:15:58.912Z,92.00
2022-07-29T08:18:26.984Z,97.95
2022-07-29T08:20:53.758Z,100.00
2022-07-29T08:23:20.657Z,94.31
2022-07-29T08:25:47.377Z,95.87
2022-07-29T08:28:17.693Z,96.08
2022-07-29T08:30:44.274Z,95.58
2022-07-29T08:33:10.902Z,94.44
2022-07-29T08:35:37.602Z,97.73
2022-07-29T08:38:04.481Z,89.70
2022-07-29T08:40:32.376Z,90.98
2022-07-29T08:43:00.827Z,94.83
2022-07-29T08:45:29.426Z,90.80
2022-07-29T08:47:56.611Z,92.12
2022-07-29T08:50:24.855Z,84.03
2022-07-29T08:52:55.392Z,81.45
2022-07-29T08:55:24.758Z,83.85
2022-07-29T08:57:54.275Z,86.59
2022-07-29T09:00:23.280Z,80.83
2022-07-29T09:02:57.020Z,84.46
2022-07-29T09:05:25.062Z,81.72
2022-07-29T09:07:52.514Z,79.53
2022-07-29T09:10:19.619Z,83.93
2022-07-29T09:12:46.787Z,79.88
2022-07-29T09:15:13.376Z,84.50
2022-07-29T09:17:48.380Z,80.80
2022-07-29T09:20:25.694Z,87.80
2022-07-29T09:22:56.153Z,83.08
2022-07-29T09:25:39.950Z,79.47
2022-07-29T09:28:07.189Z,77.29
2022-07-29T09:30:34.398Z,75.46
2022-07-29T09:33:03.685Z,69.53
2022-07-29T09:35:31.714Z,79.12
2022-07-29T09:37:58.761Z,73.62
2022-07-29T09:40:28.341Z,71.48
2022-07-29T09:42:58.306Z,73.69
2022-07-29T09:45:33.610Z,72.41
2022-07-29T09:48:14.001Z,71.25
2022-07-29T09:50:42.481Z,72.89
2022-07-29T09:53:12.528Z,65.37
2022-07-29T09:55:52.048Z,66.01
2022-07-29T09:58:21.032Z,72.42
2022-07-29T10:00:49.460Z,72.06
2022-07-29T10:03:17.390Z,71.75
2022-07-29T10:05:44.912Z,70.72
2022-07-29T10:08:13.391Z,69.52
2022-07-29T10:10:43.299Z,69.21
2022-07-29T10:13:15.989Z,67.38
2022-07-29T10:15:46.051Z,70.85
2022-07-29T10:18:18.481Z,71.79
2022-07-29T10:20:45.394Z,66.51
2022-07-29T10:23:12.093Z,66.52
2022-07-29T10:25:38.750Z,63.65
2022-07-29T10:28:06.727Z,66.80
2022-07-29T10:30:33.706Z,68.18
2022-07-29T10:33:28.460Z,63.62
2022-07-29T10:36:13.130Z,65.77
2022-07-29T10:42:04.419Z,65.35
2022-07-29T10:44:32.204Z,64.26
2022-07-29T10:46:58.961Z,64.75
2022-07-29T10:49:30.340Z,64.40
2022-07-29T10:52:05.877Z,64.59
2022-07-29T10:54:44.118Z,63.15
2022-07-29T10:57:16.755Z,65.54
2022-07-29T10:59:46.251Z,67.16
2022-07-29T11:02:41.669Z,57.49
2022-07-29T11:05:22.126Z,56.93
2022-07-29T11:08:19.612Z,58.58
2022-07-29T11:10:48.050Z,59.04
2022-07-29T11:13:44.375Z,55.73
2022-07-29T11:16:11.334Z,55.64
2022-07-29T11:19:13.080Z,55.41
2022-07-29T11:21:55.247Z,56.63
2022-07-29T11:24:35.724Z,55.14
2022-07-29T11:27:23.172Z,56.57
2022-07-29T11:29:58.474Z,55.99
2022-07-29T11:32:29.530Z,57.66
2022-07-29T11:35:17.208Z,56.18
2022-07-29T11:37:52.821Z,56.19
2022-07-29T11:40:22.956Z,56.25
2022-07-29T11:42:52.247Z,56.03
2022-07-29T11:45:42.697Z,54.29
2022-07-29T11:48:28.383Z,54.31
2022-07-29T11:50:58.374Z,53.77
2022-07-29T11:53:25.846Z,52.76
2022-07-29T11:55:58.271Z,53.68
2022-07-29T11:58:26.235Z,53.36
2022-07-29T12:00:55.326Z,52.03
2022-07-29T12:03:34.826Z,52.58
2022-07-29T12:06:13.644Z,52.23
2022-07-29T12:08:44.461Z,52.82
2022-07-29T12:11:20.456Z,52.61
2022-07-29T12:13:47.549Z,51.61
2022-07-29T12:16:16.044Z,51.65
2022-07-29T12:19:03.067Z,54.12
2022-07-29T12:21:45.722Z,52.57
2022-07-29T12:24:22.592Z,52.60
2022-07-29T12:27:00.003Z,54.49
2022-07-29T12:29:35.030Z,56.25
2022-07-29T12:32:02.384Z,54.28
2022-07-29T12:34:30.304Z,52.71
2022-07-29T12:36:57.065Z,52.64
2022-07-29T12:39:27.348Z,52.29
2022-07-29T12:41:54.305Z,53.62
2022-07-29T12:44:52.209Z,51.41
2022-07-29T12:47:20.111Z,52.83
2022-07-29T12:49:47.910Z,52.52
2022-07-29T12:52:34.976Z,47.83
2022-07-29T12:55:02.443Z,48.80
2022-07-29T12:57:29.738Z,47.91
2022-07-29T13:00:09.138Z,49.24
2022-07-29T13:02:35.991Z,47.11
2022-07-29T13:05:05.771Z,47.12
2022-07-29T13:07:55.254Z,47.71
2022-07-29T13:10:24.135Z,47.78
2022-07-29T13:13:12.233Z,46.23
2022-07-29T13:15:40.942Z,47.54
2022-07-29T13:18:31.080Z,46.80
2022-07-29T13:20:58.407Z,46.72
2022-07-29T13:23:24.962Z,46.76
2022-07-29T13:25:51.550Z,44.78
2022-07-29T13:28:18.715Z,45.95
2022-07-29T13:30:45.389Z,48.39
2022-07-29T13:33:12.001Z,48.40
2022-07-29T13:35:39.937Z,48.23
2022-07-29T13:38:06.930Z,47.58
2022-07-29T13:40:36.321Z,45.95
2022-07-29T13:43:03.065Z,46.85
2022-07-29T13:45:30.670Z,45.92
2022-07-29T13:47:57.263Z,45.11
2022-07-29T13:50:23.909Z,45.81
2022-07-29T13:52:51.697Z,43.79
2022-07-29T13:55:18.423Z,43.28
2022-07-29T13:57:45.128Z,41.25
2022-07-29T14:00:13.023Z,42.05
2022-07-29T14:02:39.759Z,41.47
2022-07-29T14:05:08.651Z,40.42
2022-07-29T14:07:35.498Z,42.52
2022-07-29T14:10:02.232Z,44.17
2022-07-29T14:12:28.779Z,42.27
2022-07-29T14:14:55.303Z,42.25
2022-07-29T14:17:22.013Z,42.99
2022-07-29T14:19:48.878Z,45.60
2022-07-29T14:22:15.610Z,46.27
2022-07-29T14:24:43.035Z,45.89
2022-07-29T14:27:09.630Z,45.84
2022-07-29T14:29:37.945Z,45.51
2022-07-29T14:32:08.749Z,44.12
2022-07-29T14:34:36.417Z,44.30
2022-07-29T14:37:06.066Z,44.05
2022-07-29T14:39:32.798Z,46.70
2022-07-29T14:42:00.318Z,50.37
2022-07-29T14:44:32.178Z,50.26
2022-07-29T14:47:07.619Z,48.26
2022-07-29T14:49:34.562Z,47.41
2022-07-29T14:52:01.396Z,46.32
2022-07-29T14:54:28.253Z,45.25
2022-07-29T14:56:57.915Z,46.75
2022-07-29T14:59:24.768Z,45.83
2022-07-29T15:01:51.345Z,44.61
2022-07-29T15:04:17.949Z,44.19
2022-07-29T15:06:44.811Z,46.20
2022-07-29T15:09:11.668Z,44.99
2022-07-29T15:11:38.855Z,42.86
2022-07-29T15:14:06.748Z,43.83
2022-07-29T15:16:34.125Z,44.69
2022-07-29T15:19:01.853Z,44.12
2022-07-29T15:21:28.721Z,43.70
2022-07-29T15:23:55.511Z,44.32
2022-07-29T15:26:22.168Z,43.66
2022-07-29T15:28:49.054Z,44.46
2022-07-29T15:31:15.778Z,43.46
2022-07-29T15:33:42.534Z,42.83
2022-07-29T15:36:09.329Z,43.42
2022-07-29T15:38:36.076Z,43.47
2022-07-29T15:41:08.704Z,43.69
2022-07-29T15:43:36.240Z,45.60
2022-07-29T15:46:21.824Z,44.76
2022-07-29T15:48:48.611Z,43.64
2022-07-29T15:51:15.294Z,42.93
2022-07-29T15:53:41.941Z,43.83
2022-07-29T15:56:08.510Z,42.93
2022-07-29T15:58:35.113Z,44.67
2022-07-29T16:01:01.889Z,45.04
2022-07-29T16:03:28.664Z,47.17
2022-07-29T16:05:55.370Z,45.18
2022-07-29T16:08:22.008Z,45.82
2022-07-29T16:10:48.619Z,46.14
2022-07-29T16:13:18.749Z,44.72
2022-07-29T16:15:46.308Z,44.48
2022-07-29T16:18:30.270Z,45.13
2022-07-29T16:20:57.274Z,45.68
2022-07-29T16:23:24.783Z,46.92
2022-07-29T16:25:59.777Z,45.29
2022-07-29T16:28:28.360Z,45.97
2022-07-29T16:30:54.977Z,48.06
2022-07-29T16:33:21.719Z,50.69
2022-07-29T16:35:48.297Z,51.51
2022-07-29T16:38:14.985Z,49.76
2022-07-29T16:40:41.682Z,50.47
2022-07-29T16:43:08.890Z,51.15
2022-07-29T16:45:45.297Z,52.98
2022-07-29T16:48:13.489Z,54.15
2022-07-29T16:50:41.223Z,54.57
2022-07-29T16:53:10.538Z,54.35
2022-07-29T16:55:37.054Z,53.26
2022-07-29T16:58:03.677Z,53.95
2022-07-29T17:00:30.385Z,53.60
2022-07-29T17:02:57.070Z,53.86
2022-07-29T17:05:23.746Z,53.90
2022-07-29T17:07:50.240Z,54.69
2022-07-29T17:10:16.858Z,55.34
2022-07-29T17:12:43.479Z,55.32
2022-07-29T17:15:11.426Z,55.35
2022-07-29T17:17:55.407Z,55.64
2022-07-29T17:20:24.032Z,55.27
2022-07-29T17:22:50.573Z,56.30
2022-07-29T17:25:20.646Z,56.26
2022-07-29T17:27:49.610Z,57.28
2022-07-29T17:30:16.356Z,56.90
2022-07-29T17:32:42.924Z,58.16
2022-07-29T17:35:28.408Z,58.20
2022-07-29T17:37:55.981Z,60.08
2022-07-29T17:40:22.739Z,62.11
2022-07-29T17:42:49.620Z,62.27
2022-07-29T17:45:17.651Z,64.17
2022-07-29T17:47:45.103Z,65.94
2022-07-29T17:50:11.684Z,66.66
2022-07-29T17:52:39.174Z,66.75
2022-07-29T17:55:07.273Z,67.82
2022-07-29T17:57:34.112Z,68.05
2022-07-29T18:00:00.658Z,69.59
2022-07-29T18:02:28.339Z,70.42
2022-07-29T18:04:55.224Z,71.09
2022-07-29T18:07:21.829Z,71.55
2022-07-29T18:09:48.479Z,71.62
2022-07-29T18:12:15.084Z,73.25
2022-07-29T18:14:41.739Z,73.58
2022-07-29T18:17:08.678Z,74.10
2022-07-29T18:19:35.311Z,75.53
2022-07-29T18:22:05.175Z,75.06
2022-07-29T18:24:32.520Z,75.63
2022-07-29T18:26:59.425Z,74.86
2022-07-29T18:29:28.927Z,75.85
2022-07-29T18:31:56.228Z,75.44
2022-07-29T18:34:22.862Z,77.57
2022-07-29T18:36:49.423Z,78.21
2022-07-29T18:39:20.513Z,80.14
2022-07-29T18:41:50.201Z,81.56
2022-07-29T18:44:21.909Z,83.05
2022-07-29T18:46:50.128Z,83.52
2022-07-29T18:49:16.850Z,84.26
2022-07-29T18:51:43.502Z,84.21
2022-07-29T18:54:10.998Z,84.67
2022-07-29T18:56:37.882Z,85.64
2022-07-29T18:59:05.139Z,86.07
2022-07-29T19:01:32.282Z,86.32
2022-07-29T19:03:59.211Z,88.91
2022-07-29T19:06:26.182Z,88.71
2022-07-29T19:08:53.300Z,90.26
2022-07-29T19:11:19.974Z,91.70
2022-07-29T19:13:46.524Z,94.50
2022-07-29T19:16:14.079Z,96.01
2022-07-29T19:18:41.618Z,97.33
2022-07-29T19:21:08.261Z,99.17
2022-07-29T19:24:00.721Z,100.00
2022-07-29T19:26:21.384Z,100.00
2022-07-29T19:28:49.071Z,100.00
2022-07-29T19:31:16.088Z,100.00
2022-07-29T19:33:42.846Z,100.00
2022-07-29T19:36:09.474Z,100.00
2022-07-29T19:38:38.181Z,100.00
2022-07-29T19:41:06.199Z,100.00
2022-07-29T19:43:50.887Z,100.00
2022-07-29T19:46:19.787Z,100.00
2022-07-29T19:48:46.499Z,100.00
2022-07-29T19:51:13.071Z,100.00
2022-07-29T19:53:39.801Z,100.00
2022-07-29T19:56:06.374Z,100.00
2022-07-29T19:58:36.050Z,100.00
2022-07-29T20:01:02.813Z,100.00
2022-07-29T20:03:39.780Z,100.00
2022-07-29T20:06:06.747Z,100.00
2022-07-29T20:08:33.383Z,100.00
2022-07-29T20:10:59.920Z,100.00
2022-07-29T20:13:26.569Z,100.00
2022-07-29T20:15:53.321Z,100.00
2022-07-29T20:18:20.050Z,100.00
2022-07-29T20:20:48.127Z,100.00
2022-07-29T20:23:14.855Z,100.00
2022-07-29T20:25:41.696Z,100.00
2022-07-29T20:28:08.328Z,100.00
2022-07-29T20:30:34.922Z,100.00
2022-07-29T20:33:05.440Z,100.00
2022-07-29T20:35:32.024Z,100.00
2022-07-29T20:37:59.779Z,100.00
2022-07-29T20:40:27.425Z,100.00
2022-07-29T20:42:54.529Z,100.00
2022-07-29T20:45:21.726Z,100.00
2022-07-29T20:47:48.282Z,100.00
2022-07-29T20:50:14.972Z,100.00
2022-07-29T20:52:43.363Z,100.00
2022-07-29T20:55:10.582Z,100.00
2022-07-29T20:57:38.998Z,100.00
2022-07-29T21:00:07.538Z,100.00
2022-07-29T21:02:34.524Z,100.00
2022-07-29T21:05:01.174Z,100.00
2022-07-29T21:07:27.842Z,100.00
2022-07-29T21:09:54.475Z,100.00
2022-07-29T21:12:21.221Z,100.00
2022-07-29T21:14:48.147Z,100.00
2022-07-29T21:17:15.940Z,100.00
2022-07-29T21:19:42.959Z,100.00
2022-07-29T21:22:09.861Z,100.00
2022-07-29T21:24:36.547Z,100.00
2022-07-29T21:27:22.034Z,100.00
2022-07-29T21:29:49.244Z,100.00
2022-07-29T21:32:27.471Z,100.00
2022-07-29T21:34:56.403Z,100.00
2022-07-29T21:37:23.007Z,100.00
2022-07-29T21:39:49.560Z,100.00
2022-07-29T21:42:16.214Z,100.00
2022-07-29T21:44:42.849Z,100.00
2022-07-29T21:47:10.667Z,100.00
2022-07-29T21:49:37.670Z,100.00
2022-07-29T21:52:05.011Z,100.00
2022-07-29T21:54:31.589Z,100.00
2022-07-29T21:56:58.554Z,100.00
2022-07-29T21:59:27.575Z,100.00
2022-07-29T22:01:54.339Z,100.00
2022-07-29T22:04:21.215Z,100.00
2022-07-29T22:06:47.845Z,100.00
2022-07-29T22:09:14.428Z,100.00
2022-07-29T22:11:42.002Z,100.00
2022-07-29T22:14:08.545Z,100.00
2022-07-29T22:16:35.294Z,100.00
2022-07-29T22:19:03.806Z,100.00
2022-07-29T22:21:30.887Z,100.00
2022-07-29T22:23:57.901Z,100.00
2022-07-29T22:26:24.523Z,100.00
2022-07-29T22:28:51.113Z,100.00
2022-07-29T22:31:17.708Z,100.00
2022-07-29T22:33:44.379Z,100.00
2022-07-29T22:36:10.975Z,100.00
2022-07-29T22:38:37.613Z,100.00
2022-07-29T22:41:04.230Z,100.00
2022-07-29T22:43:30.878Z,100.00
2022-07-29T22:45:57.468Z,100.00
2022-07-29T22:48:24.062Z,100.00
2022-07-29T22:50:50.591Z,100.00
2022-07-29T22:53:17.185Z,100.00
2022-07-29T22:55:45.476Z,100.00
2022-07-29T22:58:12.114Z,100.00
2022-07-29T23:00:38.796Z,100.00
2022-07-29T23:03:05.400Z,100.00
2022-07-29T23:05:32.658Z,100.00
2022-07-29T23:07:59.790Z,100.00
2022-07-29T23:10:26.537Z,100.00
2022-07-29T23:12:53.147Z,100.00
2022-07-29T23:15:19.834Z,100.00
2022-07-29T23:17:46.407Z,100.00
2022-07-29T23:20:14.759Z,100.00
2022-07-29T23:22:41.797Z,100.00
2022-07-29T23:25:08.828Z,100.00
2022-07-29T23:27:35.811Z,100.00
2022-07-29T23:30:04.498Z,100.00
2022-07-29T23:32:31.139Z,100.00
2022-07-29T23:34:57.729Z,100.00
2022-07-29T23:37:24.389Z,100.00
2022-07-29T23:39:53.735Z,100.00
2022-07-29T23:42:20.299Z,100.00
2022-07-29T23:44:46.884Z,100.00
2022-07-29T23:47:13.781Z,100.00
2022-07-29T23:49:40.408Z,100.00
2022-07-29T23:52:07.051Z,100.00
2022-07-29T23:54:33.591Z,100.00
2022-07-29T23:57:00.457Z,100.00
2022-07-29T23:59:27.269Z,100.00
